TVF3372 GVAC-LFRS
Flight info
| Callsign | TVF3372 |
|---|---|
| Flight time | 4h 56m |
| Altitude | 33000 |
| Route | DIMKI1A DIMKI DCT IPERA N873 ODEGI/N0460F340 DCT LOMAS DCT GDV DCT VASTO DCT BAROK DCT EVURA/N0456F360 DCT BARDI DCT ZMR DCT NUBLO DCT RONSI DCT DELOG/N0454F320 DCT YURZI UL14 TEPRA DCT EPIXO |
| Aircraft | B738/M-SDE2E3FGHIRWXY/LB1 |
Departure
| Time | 2026-04-14 10:05 |
|---|---|
| Airport | Amílcar Cabral International Airport (GVAC) |
Arrival
| Time | 2026-04-14 15:01 |
|---|---|
| Airport | Nantes Atlantique Airport (LFRS) |
| Time | Latitude | Longitude | Altitude | Speed | Heading |
|---|---|---|---|---|---|
| 2026-04-14 09:21 | 16.73446 | -22.94471 | 192 ft | 0 kts | 87° |
| 2026-04-14 09:54 | 16.73446 | -22.94476 | 192 ft | 3 kts | 87° |
| 2026-04-14 09:54 | 16.73446 | -22.94504 | 192 ft | 4 kts | 91° |
| 2026-04-14 09:55 | 16.73446 | -22.94530 | 192 ft | 3 kts | 90° |
| 2026-04-14 09:55 | 16.73451 | -22.94554 | 192 ft | 4 kts | 137° |
| 2026-04-14 09:55 | 16.73474 | -22.94564 | 192 ft | 4 kts | 177° |
| 2026-04-14 09:55 | 16.73487 | -22.94565 | 192 ft | 1 kts | 181° |
| 2026-04-14 09:56 | 16.73488 | -22.94565 | 192 ft | 0 kts | 181° |
| 2026-04-14 09:58 | 16.73487 | -22.94565 | 192 ft | 1 kts | 181° |
| 2026-04-14 09:58 | 16.73464 | -22.94565 | 192 ft | 5 kts | 181° |
| 2026-04-14 09:58 | 16.73422 | -22.94566 | 192 ft | 7 kts | 180° |
| 2026-04-14 09:58 | 16.73369 | -22.94566 | 192 ft | 8 kts | 180° |
| 2026-04-14 09:59 | 16.73316 | -22.94568 | 192 ft | 8 kts | 181° |
| 2026-04-14 09:59 | 16.73261 | -22.94568 | 192 ft | 8 kts | 181° |
| 2026-04-14 09:59 | 16.73204 | -22.94569 | 192 ft | 9 kts | 180° |
| 2026-04-14 09:59 | 16.73144 | -22.94573 | 192 ft | 9 kts | 196° |
| 2026-04-14 10:00 | 16.73092 | -22.94606 | 192 ft | 9 kts | 219° |
| 2026-04-14 10:00 | 16.73066 | -22.94659 | 192 ft | 8 kts | 258° |
| 2026-04-14 10:00 | 16.73021 | -22.94687 | 192 ft | 9 kts | 180° |
| 2026-04-14 10:00 | 16.72959 | -22.94688 | 192 ft | 9 kts | 180° |
| 2026-04-14 10:01 | 16.72893 | -22.94688 | 192 ft | 10 kts | 178° |
| 2026-04-14 10:01 | 16.72825 | -22.94688 | 192 ft | 10 kts | 181° |
| 2026-04-14 10:01 | 16.72759 | -22.94688 | 192 ft | 9 kts | 179° |
| 2026-04-14 10:01 | 16.72696 | -22.94688 | 192 ft | 9 kts | 180° |
| 2026-04-14 10:02 | 16.72635 | -22.94687 | 192 ft | 9 kts | 180° |
| 2026-04-14 10:02 | 16.72577 | -22.94687 | 192 ft | 8 kts | 179° |
| 2026-04-14 10:02 | 16.72520 | -22.94687 | 192 ft | 8 kts | 180° |
| 2026-04-14 10:02 | 16.72458 | -22.94686 | 192 ft | 9 kts | 179° |
| 2026-04-14 10:03 | 16.72415 | -22.94717 | 192 ft | 9 kts | 264° |
| 2026-04-14 10:03 | 16.72413 | -22.94778 | 192 ft | 8 kts | 269° |
| 2026-04-14 10:03 | 16.72412 | -22.94836 | 192 ft | 8 kts | 265° |
| 2026-04-14 10:03 | 16.72415 | -22.94888 | 192 ft | 7 kts | 330° |
| 2026-04-14 10:04 | 16.72495 | -22.94894 | 192 ft | 26 kts | 0° |
| 2026-04-14 10:04 | 16.72872 | -22.94892 | 192 ft | 82 kts | 359° |
| 2026-04-14 10:04 | 16.73624 | -22.94892 | 192 ft | 133 kts | 0° |
| 2026-04-14 10:04 | 16.74682 | -22.94903 | 366 ft | 161 kts | 358° |
| 2026-04-14 10:05 | 16.75781 | -22.95073 | 1008 ft | 162 kts | 347° |
| 2026-04-14 10:05 | 16.76938 | -22.95241 | 1372 ft | 178 kts | 1° |
| 2026-04-14 10:05 | 16.78167 | -22.95177 | 2134 ft | 176 kts | 6° |
| 2026-04-14 10:05 | 16.79437 | -22.95081 | 2650 ft | 192 kts | 6° |
| 2026-04-14 10:06 | 16.80856 | -22.95023 | 2961 ft | 216 kts | 4° |
| 2026-04-14 10:06 | 16.82417 | -22.94997 | 3453 ft | 229 kts | 3° |
| 2026-04-14 10:06 | 16.84023 | -22.94987 | 4130 ft | 236 kts | 2° |
| 2026-04-14 10:06 | 16.85722 | -22.94991 | 4593 ft | 252 kts | 2° |
| 2026-04-14 10:07 | 16.87520 | -22.95000 | 5181 ft | 262 kts | 1° |
| 2026-04-14 10:07 | 16.89362 | -22.95009 | 5858 ft | 269 kts | 1° |
| 2026-04-14 10:07 | 16.91255 | -22.94904 | 6544 ft | 273 kts | 12° |
| 2026-04-14 10:07 | 16.93036 | -22.94250 | 7245 ft | 276 kts | 27° |
| 2026-04-14 10:08 | 16.94714 | -22.93225 | 7926 ft | 280 kts | 32° |
| 2026-04-14 10:08 | 16.96327 | -22.92094 | 8572 ft | 284 kts | 34° |
| 2026-04-14 10:08 | 16.97951 | -22.90898 | 9225 ft | 288 kts | 34° |
| 2026-04-14 10:08 | 16.99622 | -22.89669 | 9835 ft | 293 kts | 34° |
| 2026-04-14 10:09 | 17.01303 | -22.88439 | 10429 ft | 298 kts | 33° |
| 2026-04-14 10:09 | 17.03026 | -22.87183 | 10877 ft | 309 kts | 33° |
| 2026-04-14 10:09 | 17.04848 | -22.85857 | 11118 ft | 327 kts | 33° |
| 2026-04-14 10:09 | 17.06764 | -22.84465 | 11345 ft | 343 kts | 33° |
| 2026-04-14 10:10 | 17.08773 | -22.83007 | 11557 ft | 360 kts | 33° |
| 2026-04-14 10:10 | 17.10871 | -22.81485 | 11770 ft | 374 kts | 33° |
| 2026-04-14 10:10 | 17.13007 | -22.79937 | 12141 ft | 382 kts | 33° |
| 2026-04-14 10:10 | 17.15239 | -22.78321 | 12649 ft | 387 kts | 33° |
| 2026-04-14 10:11 | 17.17431 | -22.76732 | 13139 ft | 391 kts | 33° |
| 2026-04-14 10:11 | 17.19687 | -22.75098 | 13645 ft | 395 kts | 33° |
| 2026-04-14 10:11 | 17.21959 | -22.73459 | 14137 ft | 399 kts | 33° |
| 2026-04-14 10:11 | 17.24255 | -22.71802 | 14612 ft | 403 kts | 33° |
| 2026-04-14 10:12 | 17.26574 | -22.70127 | 15085 ft | 407 kts | 33° |
| 2026-04-14 10:12 | 17.28911 | -22.68436 | 15555 ft | 411 kts | 33° |
| 2026-04-14 10:12 | 17.31280 | -22.66721 | 16026 ft | 415 kts | 33° |
| 2026-04-14 10:12 | 17.33666 | -22.64992 | 16478 ft | 419 kts | 33° |
| 2026-04-14 10:13 | 17.36102 | -22.63227 | 16931 ft | 423 kts | 33° |
| 2026-04-14 10:13 | 17.38528 | -22.61468 | 17371 ft | 426 kts | 33° |
| 2026-04-14 10:13 | 17.40943 | -22.59716 | 17798 ft | 430 kts | 34° |
| 2026-04-14 10:13 | 17.43410 | -22.57925 | 18227 ft | 433 kts | 34° |
| 2026-04-14 10:14 | 17.45937 | -22.56092 | 18604 ft | 438 kts | 33° |
| 2026-04-14 10:14 | 17.48418 | -22.54289 | 18999 ft | 442 kts | 33° |
| 2026-04-14 10:14 | 17.50984 | -22.52425 | 19389 ft | 446 kts | 33° |
| 2026-04-14 10:14 | 17.53514 | -22.50586 | 19769 ft | 449 kts | 33° |
| 2026-04-14 10:15 | 17.56091 | -22.48714 | 20137 ft | 453 kts | 33° |
| 2026-04-14 10:15 | 17.58690 | -22.46823 | 20509 ft | 456 kts | 33° |
| 2026-04-14 10:15 | 17.61302 | -22.44923 | 20884 ft | 459 kts | 33° |
| 2026-04-14 10:15 | 17.63946 | -22.43005 | 21240 ft | 462 kts | 33° |
| 2026-04-14 10:16 | 17.66595 | -22.41080 | 21575 ft | 466 kts | 33° |
| 2026-04-14 10:16 | 17.69268 | -22.39133 | 21903 ft | 469 kts | 33° |
| 2026-04-14 10:16 | 17.71960 | -22.37171 | 22221 ft | 472 kts | 33° |
| 2026-04-14 10:16 | 17.74667 | -22.35196 | 22521 ft | 476 kts | 33° |
| 2026-04-14 10:17 | 17.77403 | -22.33199 | 22829 ft | 479 kts | 32° |
| 2026-04-14 10:17 | 17.80103 | -22.31227 | 23115 ft | 482 kts | 32° |
| 2026-04-14 10:17 | 17.82897 | -22.29186 | 23421 ft | 484 kts | 32° |
| 2026-04-14 10:17 | 17.85633 | -22.27189 | 23696 ft | 487 kts | 32° |
| 2026-04-14 10:18 | 17.91314 | -22.23169 | 24240 ft | 491 kts | 29° |
| 2026-04-14 10:18 | 17.94264 | -22.21327 | 24520 ft | 493 kts | 27° |
| 2026-04-14 10:18 | 17.97252 | -22.19541 | 24787 ft | 495 kts | 26° |
| 2026-04-14 10:19 | 18.00251 | -22.17741 | 25038 ft | 498 kts | 26° |
| 2026-04-14 10:19 | 18.03225 | -22.15939 | 25298 ft | 500 kts | 27° |
| 2026-04-14 10:19 | 18.06238 | -22.14099 | 25547 ft | 502 kts | 27° |
| 2026-04-14 10:19 | 18.09265 | -22.12243 | 25786 ft | 505 kts | 27° |
| 2026-04-14 10:20 | 18.12303 | -22.10374 | 26025 ft | 507 kts | 27° |
| 2026-04-14 10:20 | 18.15352 | -22.08496 | 26280 ft | 509 kts | 27° |
| 2026-04-14 10:20 | 18.18411 | -22.06609 | 26509 ft | 511 kts | 27° |
| 2026-04-14 10:20 | 18.21491 | -22.04717 | 26724 ft | 513 kts | 26° |
| 2026-04-14 10:21 | 18.23582 | -22.03432 | 26872 ft | 515 kts | 26° |
| 2026-04-14 10:21 | 18.27928 | -22.00753 | 27193 ft | 517 kts | 26° |
| 2026-04-14 10:21 | 18.30034 | -21.99454 | 27341 ft | 518 kts | 26° |
| 2026-04-14 10:21 | 18.33109 | -21.97558 | 27552 ft | 520 kts | 26° |
| 2026-04-14 10:22 | 18.36348 | -21.95555 | 27757 ft | 522 kts | 26° |
| 2026-04-14 10:22 | 18.39502 | -21.93604 | 27947 ft | 524 kts | 26° |
| 2026-04-14 10:22 | 18.42651 | -21.91656 | 28151 ft | 526 kts | 26° |
| 2026-04-14 10:22 | 18.45858 | -21.89670 | 28358 ft | 527 kts | 26° |
| 2026-04-14 10:23 | 18.49017 | -21.87714 | 28660 ft | 526 kts | 26° |
| 2026-04-14 10:23 | 18.52216 | -21.85732 | 28930 ft | 526 kts | 26° |
| 2026-04-14 10:23 | 18.55368 | -21.83777 | 29181 ft | 527 kts | 26° |
| 2026-04-14 10:23 | 18.58528 | -21.81817 | 29524 ft | 525 kts | 26° |
| 2026-04-14 10:24 | 18.61709 | -21.79844 | 29804 ft | 525 kts | 26° |
| 2026-04-14 10:24 | 18.64953 | -21.77830 | 30043 ft | 526 kts | 26° |
| 2026-04-14 10:24 | 18.68057 | -21.75903 | 30341 ft | 525 kts | 26° |
| 2026-04-14 10:24 | 18.71240 | -21.73928 | 30628 ft | 524 kts | 26° |
| 2026-04-14 10:25 | 18.74384 | -21.71972 | 30920 ft | 524 kts | 26° |
| 2026-04-14 10:25 | 18.77517 | -21.70023 | 31169 ft | 524 kts | 26° |
| 2026-04-14 10:25 | 18.80657 | -21.68070 | 31464 ft | 523 kts | 26° |
| 2026-04-14 10:25 | 18.83834 | -21.66093 | 31755 ft | 523 kts | 26° |
| 2026-04-14 10:26 | 18.87008 | -21.64116 | 32045 ft | 522 kts | 26° |
| 2026-04-14 10:26 | 18.90140 | -21.62165 | 32288 ft | 522 kts | 26° |
| 2026-04-14 10:26 | 18.93266 | -21.60217 | 32559 ft | 522 kts | 26° |
| 2026-04-14 10:26 | 18.96388 | -21.58272 | 32841 ft | 521 kts | 26° |
| 2026-04-14 10:27 | 18.99640 | -21.56243 | 33088 ft | 521 kts | 26° |
| 2026-04-14 10:27 | 19.02757 | -21.54297 | 33346 ft | 521 kts | 26° |
| 2026-04-14 10:27 | 19.05888 | -21.52342 | 33570 ft | 521 kts | 26° |
| 2026-04-14 10:27 | 19.09007 | -21.50394 | 33859 ft | 520 kts | 26° |
| 2026-04-14 10:28 | 19.12120 | -21.48449 | 34088 ft | 520 kts | 26° |
| 2026-04-14 10:28 | 19.15236 | -21.46501 | 34337 ft | 520 kts | 26° |
| 2026-04-14 10:28 | 19.18348 | -21.44555 | 34579 ft | 519 kts | 26° |
| 2026-04-14 10:28 | 19.21465 | -21.42605 | 34791 ft | 520 kts | 26° |
| 2026-04-14 10:29 | 19.24574 | -21.40660 | 35023 ft | 519 kts | 26° |
| 2026-04-14 10:29 | 19.27679 | -21.38714 | 35288 ft | 518 kts | 26° |
| 2026-04-14 10:29 | 19.30824 | -21.36743 | 35515 ft | 518 kts | 26° |
| 2026-04-14 10:29 | 19.33923 | -21.34801 | 35722 ft | 518 kts | 26° |
| 2026-04-14 10:30 | 19.37020 | -21.32859 | 35946 ft | 517 kts | 26° |
| 2026-04-14 10:30 | 19.40120 | -21.30914 | 36036 ft | 519 kts | 26° |
| 2026-04-14 10:30 | 19.46326 | -21.27018 | 36049 ft | 517 kts | 26° |
| 2026-04-14 10:31 | 19.52483 | -21.23150 | 36052 ft | 513 kts | 26° |
| 2026-04-14 10:31 | 19.58616 | -21.19292 | 36053 ft | 513 kts | 26° |
| 2026-04-14 10:32 | 19.64774 | -21.15416 | 36053 ft | 514 kts | 27° |
| 2026-04-14 10:32 | 19.70925 | -21.11540 | 36053 ft | 514 kts | 27° |
| 2026-04-14 10:33 | 19.77069 | -21.07666 | 36053 ft | 514 kts | 27° |
| 2026-04-14 10:33 | 19.83335 | -21.03710 | 36053 ft | 515 kts | 26° |
| 2026-04-14 10:34 | 19.91614 | -20.98479 | 36054 ft | 514 kts | 27° |
| 2026-04-14 10:35 | 19.97853 | -20.94533 | 36054 ft | 514 kts | 27° |
| 2026-04-14 10:35 | 20.04038 | -20.90617 | 36054 ft | 513 kts | 27° |
| 2026-04-14 10:36 | 20.10127 | -20.86763 | 36054 ft | 512 kts | 27° |
| 2026-04-14 10:36 | 20.16298 | -20.82854 | 36054 ft | 513 kts | 27° |
| 2026-04-14 10:37 | 20.22467 | -20.78933 | 36055 ft | 513 kts | 27° |
| 2026-04-14 10:37 | 20.28629 | -20.75012 | 36055 ft | 513 kts | 27° |
| 2026-04-14 10:38 | 20.34761 | -20.71110 | 36055 ft | 513 kts | 27° |
| 2026-04-14 10:38 | 20.40983 | -20.67140 | 36056 ft | 513 kts | 27° |
| 2026-04-14 10:39 | 20.47114 | -20.63221 | 36056 ft | 514 kts | 27° |
| 2026-04-14 10:39 | 20.53245 | -20.59294 | 36057 ft | 514 kts | 27° |
| 2026-04-14 10:40 | 20.59368 | -20.55369 | 36057 ft | 513 kts | 27° |
| 2026-04-14 10:40 | 20.65496 | -20.51436 | 36057 ft | 513 kts | 27° |
| 2026-04-14 10:41 | 20.71666 | -20.47495 | 36057 ft | 513 kts | 27° |
| 2026-04-14 10:41 | 20.77837 | -20.43540 | 36058 ft | 513 kts | 27° |
| 2026-04-14 10:42 | 20.84157 | -20.39481 | 36058 ft | 513 kts | 27° |
| 2026-04-14 10:42 | 20.90227 | -20.35577 | 36058 ft | 513 kts | 27° |
| 2026-04-14 10:43 | 20.96333 | -20.31646 | 36060 ft | 512 kts | 27° |
| 2026-04-14 10:43 | 21.02441 | -20.27712 | 36082 ft | 512 kts | 28° |
| 2026-04-14 10:44 | 21.08538 | -20.23778 | 36091 ft | 512 kts | 28° |
| 2026-04-14 10:44 | 21.14628 | -20.19846 | 36092 ft | 512 kts | 28° |
| 2026-04-14 10:45 | 21.20742 | -20.15894 | 36092 ft | 511 kts | 28° |
| 2026-04-14 10:45 | 21.26833 | -20.11954 | 36093 ft | 511 kts | 28° |
| 2026-04-14 10:46 | 21.31891 | -20.08678 | 36093 ft | 511 kts | 28° |
| 2026-04-14 10:46 | 21.38049 | -20.04687 | 36094 ft | 510 kts | 28° |
| 2026-04-14 10:47 | 21.44123 | -20.00747 | 36094 ft | 510 kts | 28° |
| 2026-04-14 10:47 | 21.50240 | -19.96774 | 36094 ft | 510 kts | 28° |
| 2026-04-14 10:48 | 21.56313 | -19.92827 | 36095 ft | 510 kts | 28° |
| 2026-04-14 10:48 | 21.62392 | -19.88871 | 36096 ft | 510 kts | 28° |
| 2026-04-14 10:49 | 21.68457 | -19.84921 | 36096 ft | 509 kts | 28° |
| 2026-04-14 10:49 | 21.74518 | -19.80970 | 36096 ft | 510 kts | 28° |
| 2026-04-14 10:50 | 21.80583 | -19.77012 | 36097 ft | 510 kts | 28° |
| 2026-04-14 10:50 | 21.86685 | -19.73037 | 36097 ft | 510 kts | 28° |
| 2026-04-14 10:51 | 21.92815 | -19.69025 | 36097 ft | 510 kts | 29° |
| 2026-04-14 10:51 | 21.98889 | -19.65043 | 36098 ft | 510 kts | 29° |
| 2026-04-14 10:52 | 22.05023 | -19.61021 | 36098 ft | 509 kts | 29° |
| 2026-04-14 10:52 | 22.11040 | -19.57072 | 36099 ft | 509 kts | 29° |
| 2026-04-14 10:53 | 22.17083 | -19.53105 | 36099 ft | 509 kts | 29° |
| 2026-04-14 10:53 | 22.23134 | -19.49124 | 36100 ft | 509 kts | 29° |
| 2026-04-14 10:54 | 22.29166 | -19.45152 | 36100 ft | 509 kts | 29° |
| 2026-04-14 10:54 | 22.35215 | -19.41161 | 36101 ft | 509 kts | 29° |
| 2026-04-14 10:55 | 22.41403 | -19.37094 | 36101 ft | 510 kts | 29° |
| 2026-04-14 10:55 | 22.47467 | -19.33103 | 36102 ft | 509 kts | 29° |
| 2026-04-14 10:56 | 22.53504 | -19.29121 | 36103 ft | 509 kts | 29° |
| 2026-04-14 10:56 | 22.59570 | -19.25112 | 36103 ft | 509 kts | 29° |
| 2026-04-14 10:57 | 22.65608 | -19.21116 | 36104 ft | 509 kts | 29° |
| 2026-04-14 10:57 | 22.71651 | -19.17114 | 36105 ft | 509 kts | 29° |
| 2026-04-14 10:58 | 22.77694 | -19.13106 | 36106 ft | 509 kts | 29° |
| 2026-04-14 10:58 | 22.83777 | -19.09068 | 36106 ft | 509 kts | 29° |
| 2026-04-14 10:59 | 22.89816 | -19.05055 | 36107 ft | 509 kts | 29° |
| 2026-04-14 10:59 | 22.95860 | -19.01034 | 36108 ft | 509 kts | 29° |
| 2026-04-14 11:00 | 23.01899 | -18.97013 | 36108 ft | 509 kts | 29° |
| 2026-04-14 11:00 | 23.08035 | -18.92922 | 36109 ft | 508 kts | 29° |
| 2026-04-14 11:01 | 23.14115 | -18.88865 | 36110 ft | 508 kts | 29° |
| 2026-04-14 11:01 | 23.19170 | -18.85487 | 36111 ft | 508 kts | 29° |
| 2026-04-14 11:02 | 23.25180 | -18.81469 | 36111 ft | 507 kts | 29° |
| 2026-04-14 11:02 | 23.31235 | -18.77415 | 36112 ft | 507 kts | 29° |
| 2026-04-14 11:03 | 23.37286 | -18.73360 | 36113 ft | 507 kts | 29° |
| 2026-04-14 11:03 | 23.43319 | -18.69312 | 36113 ft | 506 kts | 29° |
| 2026-04-14 11:04 | 23.49365 | -18.65252 | 36112 ft | 506 kts | 29° |
| 2026-04-14 11:04 | 23.55427 | -18.61176 | 36116 ft | 504 kts | 29° |
| 2026-04-14 11:05 | 23.61439 | -18.57129 | 36116 ft | 504 kts | 29° |
| 2026-04-14 11:05 | 23.67371 | -18.53133 | 36118 ft | 504 kts | 29° |
| 2026-04-14 11:06 | 23.73327 | -18.49115 | 36118 ft | 503 kts | 29° |
| 2026-04-14 11:06 | 23.79384 | -18.45025 | 36141 ft | 503 kts | 29° |
| 2026-04-14 11:07 | 23.85309 | -18.41020 | 36158 ft | 502 kts | 29° |
| 2026-04-14 11:07 | 23.91250 | -18.36999 | 36165 ft | 502 kts | 29° |
| 2026-04-14 11:08 | 23.97180 | -18.32981 | 36165 ft | 502 kts | 29° |
| 2026-04-14 11:08 | 24.03160 | -18.28926 | 36166 ft | 501 kts | 29° |
| 2026-04-14 11:09 | 24.09198 | -18.24826 | 36165 ft | 500 kts | 29° |
| 2026-04-14 11:09 | 24.15147 | -18.20782 | 36166 ft | 501 kts | 29° |
| 2026-04-14 11:10 | 24.24032 | -18.14734 | 36167 ft | 501 kts | 29° |
| 2026-04-14 11:10 | 24.30063 | -18.10622 | 36167 ft | 501 kts | 29° |
| 2026-04-14 11:11 | 24.35029 | -18.07234 | 36168 ft | 501 kts | 29° |
| 2026-04-14 11:11 | 24.41004 | -18.03152 | 36169 ft | 501 kts | 29° |
| 2026-04-14 11:12 | 24.47034 | -17.99029 | 36168 ft | 500 kts | 29° |
| 2026-04-14 11:12 | 24.52934 | -17.94989 | 36170 ft | 499 kts | 29° |
| 2026-04-14 11:13 | 24.58960 | -17.90859 | 36170 ft | 499 kts | 29° |
| 2026-04-14 11:13 | 24.64836 | -17.86827 | 36171 ft | 499 kts | 29° |
| 2026-04-14 11:14 | 24.70708 | -17.82794 | 36180 ft | 498 kts | 29° |
| 2026-04-14 11:14 | 24.76609 | -17.78748 | 36184 ft | 498 kts | 29° |
| 2026-04-14 11:15 | 24.82474 | -17.74710 | 36185 ft | 497 kts | 29° |
| 2026-04-14 11:15 | 24.88581 | -17.70494 | 36186 ft | 497 kts | 29° |
| 2026-04-14 11:16 | 24.94429 | -17.66453 | 36187 ft | 496 kts | 29° |
| 2026-04-14 11:16 | 25.00276 | -17.62409 | 36189 ft | 496 kts | 30° |
| 2026-04-14 11:17 | 25.06118 | -17.58359 | 36190 ft | 495 kts | 30° |
| 2026-04-14 11:17 | 25.11911 | -17.54333 | 36191 ft | 495 kts | 30° |
| 2026-04-14 11:18 | 25.17740 | -17.50276 | 36193 ft | 495 kts | 30° |
| 2026-04-14 11:18 | 25.23562 | -17.46218 | 36194 ft | 495 kts | 30° |
| 2026-04-14 11:19 | 25.29386 | -17.42157 | 36196 ft | 495 kts | 30° |
| 2026-04-14 11:19 | 25.35214 | -17.38113 | 36197 ft | 494 kts | 30° |
| 2026-04-14 11:20 | 25.41032 | -17.34058 | 36199 ft | 494 kts | 30° |
| 2026-04-14 11:20 | 25.46843 | -17.29999 | 36202 ft | 494 kts | 30° |
| 2026-04-14 11:21 | 25.52684 | -17.25913 | 36202 ft | 493 kts | 30° |
| 2026-04-14 11:21 | 25.57514 | -17.22530 | 36204 ft | 493 kts | 30° |
| 2026-04-14 11:22 | 25.64327 | -17.17752 | 36205 ft | 493 kts | 30° |
| 2026-04-14 11:22 | 25.70109 | -17.13693 | 36207 ft | 492 kts | 30° |
| 2026-04-14 11:23 | 25.75897 | -17.09624 | 36209 ft | 492 kts | 30° |
| 2026-04-14 11:23 | 25.81669 | -17.05561 | 36211 ft | 491 kts | 30° |
| 2026-04-14 11:24 | 25.87447 | -17.01489 | 36213 ft | 491 kts | 30° |
| 2026-04-14 11:24 | 25.92281 | -16.98080 | 36208 ft | 491 kts | 30° |
| 2026-04-14 11:25 | 25.98118 | -16.93973 | 36210 ft | 490 kts | 30° |
| 2026-04-14 11:25 | 26.03945 | -16.89851 | 36210 ft | 488 kts | 30° |
| 2026-04-14 11:26 | 26.09676 | -16.85787 | 36203 ft | 484 kts | 30° |
| 2026-04-14 11:26 | 26.15352 | -16.81759 | 36204 ft | 484 kts | 30° |
| 2026-04-14 11:27 | 26.21469 | -16.77418 | 36206 ft | 483 kts | 30° |
| 2026-04-14 11:27 | 26.26713 | -16.73711 | 36207 ft | 483 kts | 30° |
| 2026-04-14 11:28 | 26.32376 | -16.69698 | 36209 ft | 483 kts | 30° |
| 2026-04-14 11:28 | 26.38050 | -16.65671 | 36210 ft | 482 kts | 30° |
| 2026-04-14 11:29 | 26.43711 | -16.61647 | 36212 ft | 482 kts | 30° |
| 2026-04-14 11:29 | 26.49368 | -16.57627 | 36213 ft | 482 kts | 30° |
| 2026-04-14 11:30 | 26.55019 | -16.53626 | 36213 ft | 481 kts | 30° |
| 2026-04-14 11:30 | 26.60638 | -16.49629 | 36215 ft | 481 kts | 31° |
| 2026-04-14 11:31 | 26.66289 | -16.45616 | 36216 ft | 481 kts | 31° |
| 2026-04-14 11:31 | 26.71910 | -16.41604 | 36217 ft | 480 kts | 31° |
| 2026-04-14 11:32 | 26.77550 | -16.37567 | 36219 ft | 480 kts | 31° |
| 2026-04-14 11:32 | 26.83176 | -16.33535 | 36220 ft | 479 kts | 31° |
| 2026-04-14 11:33 | 26.88796 | -16.29507 | 36221 ft | 479 kts | 31° |
| 2026-04-14 11:34 | 26.97203 | -16.23452 | 36222 ft | 478 kts | 31° |
| 2026-04-14 11:34 | 27.02751 | -16.19444 | 36223 ft | 477 kts | 32° |
| 2026-04-14 11:35 | 27.08322 | -16.15414 | 36224 ft | 476 kts | 32° |
| 2026-04-14 11:35 | 27.13886 | -16.11385 | 36225 ft | 475 kts | 32° |
| 2026-04-14 11:36 | 27.19437 | -16.07367 | 36225 ft | 474 kts | 32° |
| 2026-04-14 11:36 | 27.24988 | -16.03363 | 36224 ft | 474 kts | 32° |
| 2026-04-14 11:37 | 27.30525 | -15.99350 | 36225 ft | 473 kts | 32° |
| 2026-04-14 11:37 | 27.36039 | -15.95346 | 36223 ft | 471 kts | 32° |
| 2026-04-14 11:38 | 27.41534 | -15.91350 | 36224 ft | 470 kts | 32° |
| 2026-04-14 11:38 | 27.47039 | -15.87353 | 36225 ft | 470 kts | 32° |
| 2026-04-14 11:39 | 27.52490 | -15.83383 | 36225 ft | 469 kts | 32° |
| 2026-04-14 11:39 | 27.58011 | -15.79348 | 36226 ft | 469 kts | 33° |
| 2026-04-14 11:40 | 27.63436 | -15.75376 | 36226 ft | 468 kts | 33° |
| 2026-04-14 11:40 | 27.68891 | -15.71381 | 36227 ft | 469 kts | 33° |
| 2026-04-14 11:41 | 27.74389 | -15.67352 | 36228 ft | 469 kts | 33° |
| 2026-04-14 11:41 | 27.79866 | -15.63343 | 36229 ft | 469 kts | 33° |
| 2026-04-14 11:42 | 27.85345 | -15.59350 | 36231 ft | 469 kts | 33° |
| 2026-04-14 11:42 | 27.90812 | -15.55339 | 36232 ft | 469 kts | 33° |
| 2026-04-14 11:43 | 27.96282 | -15.51314 | 36231 ft | 469 kts | 33° |
| 2026-04-14 11:43 | 28.01979 | -15.47118 | 36232 ft | 468 kts | 33° |
| 2026-04-14 11:44 | 28.07485 | -15.43060 | 36231 ft | 466 kts | 33° |
| 2026-04-14 11:44 | 28.12115 | -15.39626 | 36232 ft | 467 kts | 33° |
| 2026-04-14 11:45 | 28.17611 | -15.35538 | 36232 ft | 467 kts | 33° |
| 2026-04-14 11:45 | 28.23008 | -15.31515 | 36231 ft | 467 kts | 33° |
| 2026-04-14 11:46 | 28.28428 | -15.27470 | 36233 ft | 466 kts | 33° |
| 2026-04-14 11:46 | 28.33851 | -15.23417 | 36233 ft | 465 kts | 33° |
| 2026-04-14 11:47 | 28.39314 | -15.19349 | 36233 ft | 465 kts | 33° |
| 2026-04-14 11:47 | 28.44728 | -15.15320 | 36233 ft | 465 kts | 33° |
| 2026-04-14 11:48 | 28.50135 | -15.11280 | 36231 ft | 465 kts | 33° |
| 2026-04-14 11:48 | 28.55556 | -15.07221 | 36223 ft | 465 kts | 33° |
| 2026-04-14 11:49 | 28.60982 | -15.03151 | 36221 ft | 465 kts | 33° |
| 2026-04-14 11:49 | 28.66533 | -14.98982 | 36218 ft | 465 kts | 33° |
| 2026-04-14 11:50 | 28.72081 | -14.94810 | 36214 ft | 464 kts | 33° |
| 2026-04-14 11:50 | 28.77467 | -14.90754 | 36215 ft | 464 kts | 33° |
| 2026-04-14 11:51 | 28.85659 | -14.84575 | 36213 ft | 464 kts | 33° |
| 2026-04-14 11:51 | 28.91039 | -14.80510 | 36212 ft | 464 kts | 33° |
| 2026-04-14 11:52 | 28.96421 | -14.76439 | 36213 ft | 464 kts | 33° |
| 2026-04-14 11:52 | 29.01034 | -14.72945 | 36212 ft | 464 kts | 33° |
| 2026-04-14 11:53 | 29.06481 | -14.68815 | 36211 ft | 463 kts | 33° |
| 2026-04-14 11:53 | 29.11894 | -14.64706 | 36211 ft | 463 kts | 33° |
| 2026-04-14 11:54 | 29.17424 | -14.60503 | 36210 ft | 463 kts | 33° |
| 2026-04-14 11:54 | 29.22765 | -14.56437 | 36210 ft | 463 kts | 32° |
| 2026-04-14 11:55 | 29.28176 | -14.52312 | 36209 ft | 463 kts | 32° |
| 2026-04-14 11:55 | 29.33532 | -14.48225 | 36208 ft | 463 kts | 32° |
| 2026-04-14 11:56 | 29.38916 | -14.44111 | 36208 ft | 463 kts | 32° |
| 2026-04-14 11:56 | 29.44351 | -14.39953 | 36208 ft | 462 kts | 32° |
| 2026-04-14 11:57 | 29.49692 | -14.35861 | 36208 ft | 463 kts | 32° |
| 2026-04-14 11:57 | 29.55050 | -14.31750 | 36209 ft | 462 kts | 32° |
| 2026-04-14 11:58 | 29.60398 | -14.27643 | 36210 ft | 462 kts | 32° |
| 2026-04-14 11:58 | 29.65741 | -14.23534 | 36210 ft | 462 kts | 32° |
| 2026-04-14 11:59 | 29.71077 | -14.19425 | 36210 ft | 462 kts | 32° |
| 2026-04-14 11:59 | 29.76374 | -14.15340 | 36210 ft | 462 kts | 32° |
| 2026-04-14 12:00 | 29.81999 | -14.10997 | 36211 ft | 462 kts | 32° |
| 2026-04-14 12:00 | 29.86473 | -14.07539 | 36211 ft | 462 kts | 32° |
| 2026-04-14 12:01 | 29.91813 | -14.03405 | 36211 ft | 462 kts | 32° |
| 2026-04-14 12:01 | 29.97171 | -13.99252 | 36211 ft | 462 kts | 32° |
| 2026-04-14 12:02 | 30.02507 | -13.95111 | 36212 ft | 462 kts | 32° |
| 2026-04-14 12:02 | 30.07865 | -13.90948 | 36213 ft | 462 kts | 32° |
| 2026-04-14 12:03 | 30.13240 | -13.86765 | 36212 ft | 462 kts | 32° |
| 2026-04-14 12:03 | 30.18599 | -13.82589 | 36207 ft | 461 kts | 32° |
| 2026-04-14 12:04 | 30.23954 | -13.78412 | 36207 ft | 461 kts | 32° |
| 2026-04-14 12:04 | 30.29352 | -13.74215 | 36208 ft | 461 kts | 32° |
| 2026-04-14 12:05 | 30.34674 | -13.70049 | 36208 ft | 461 kts | 32° |
| 2026-04-14 12:05 | 30.40019 | -13.65853 | 36209 ft | 461 kts | 32° |
| 2026-04-14 12:06 | 30.45356 | -13.61660 | 36209 ft | 460 kts | 32° |
| 2026-04-14 12:06 | 30.50674 | -13.57508 | 36207 ft | 460 kts | 31° |
| 2026-04-14 12:07 | 30.56268 | -13.53929 | 36192 ft | 458 kts | 25° |
| 2026-04-14 12:07 | 30.61935 | -13.50542 | 36186 ft | 458 kts | 26° |
| 2026-04-14 12:08 | 30.67588 | -13.47123 | 36186 ft | 458 kts | 26° |
| 2026-04-14 12:08 | 30.73229 | -13.43690 | 36184 ft | 458 kts | 26° |
| 2026-04-14 12:09 | 30.78908 | -13.40221 | 36186 ft | 457 kts | 26° |
| 2026-04-14 12:09 | 30.84545 | -13.36790 | 36186 ft | 457 kts | 26° |
| 2026-04-14 12:10 | 30.90373 | -13.33241 | 36185 ft | 457 kts | 26° |
| 2026-04-14 12:10 | 30.95997 | -13.29802 | 36186 ft | 457 kts | 26° |
| 2026-04-14 12:11 | 31.01639 | -13.26344 | 36186 ft | 457 kts | 26° |
| 2026-04-14 12:11 | 31.06302 | -13.23481 | 36186 ft | 457 kts | 26° |
| 2026-04-14 12:12 | 31.12125 | -13.19901 | 36187 ft | 456 kts | 26° |
| 2026-04-14 12:12 | 31.17778 | -13.16420 | 36185 ft | 456 kts | 26° |
| 2026-04-14 12:13 | 31.23399 | -13.12954 | 36186 ft | 456 kts | 26° |
| 2026-04-14 12:13 | 31.29006 | -13.09492 | 36186 ft | 456 kts | 26° |
| 2026-04-14 12:14 | 31.34608 | -13.06028 | 36186 ft | 456 kts | 26° |
| 2026-04-14 12:14 | 31.40211 | -13.02559 | 36186 ft | 455 kts | 26° |
| 2026-04-14 12:15 | 31.45808 | -12.99089 | 36186 ft | 455 kts | 26° |
| 2026-04-14 12:15 | 31.51412 | -12.95610 | 36186 ft | 455 kts | 26° |
| 2026-04-14 12:16 | 31.56932 | -12.92178 | 36187 ft | 454 kts | 26° |
| 2026-04-14 12:16 | 31.62557 | -12.88676 | 36204 ft | 454 kts | 26° |
| 2026-04-14 12:17 | 31.68135 | -12.85199 | 36209 ft | 454 kts | 26° |
| 2026-04-14 12:17 | 31.73757 | -12.81690 | 36214 ft | 453 kts | 26° |
| 2026-04-14 12:18 | 31.79315 | -12.78215 | 36219 ft | 453 kts | 26° |
| 2026-04-14 12:18 | 31.84895 | -12.74722 | 36219 ft | 453 kts | 26° |
| 2026-04-14 12:19 | 31.90451 | -12.71240 | 36217 ft | 453 kts | 26° |
| 2026-04-14 12:19 | 31.96090 | -12.67700 | 36208 ft | 459 kts | 26° |
| 2026-04-14 12:20 | 32.01757 | -12.64138 | 36206 ft | 458 kts | 26° |
| 2026-04-14 12:20 | 32.07342 | -12.60622 | 36206 ft | 457 kts | 26° |
| 2026-04-14 12:21 | 32.13085 | -12.57002 | 36206 ft | 457 kts | 26° |
| 2026-04-14 12:21 | 32.18665 | -12.53480 | 36205 ft | 457 kts | 26° |
| 2026-04-14 12:22 | 32.24283 | -12.49929 | 36204 ft | 457 kts | 26° |
| 2026-04-14 12:22 | 32.29842 | -12.46410 | 36204 ft | 457 kts | 26° |
| 2026-04-14 12:23 | 32.35451 | -12.42854 | 36204 ft | 457 kts | 26° |
| 2026-04-14 12:23 | 32.41061 | -12.39293 | 36203 ft | 457 kts | 26° |
| 2026-04-14 12:24 | 32.46658 | -12.35735 | 36203 ft | 457 kts | 26° |
| 2026-04-14 12:24 | 32.52344 | -12.32114 | 36202 ft | 457 kts | 26° |
| 2026-04-14 12:25 | 32.57943 | -12.28545 | 36202 ft | 457 kts | 26° |
| 2026-04-14 12:25 | 32.63542 | -12.24970 | 36201 ft | 457 kts | 26° |
| 2026-04-14 12:26 | 32.69233 | -12.21331 | 36201 ft | 457 kts | 27° |
| 2026-04-14 12:26 | 32.74835 | -12.17744 | 36201 ft | 458 kts | 26° |
| 2026-04-14 12:27 | 32.80440 | -12.14150 | 36201 ft | 458 kts | 27° |
| 2026-04-14 12:27 | 32.86012 | -12.10572 | 36201 ft | 458 kts | 26° |
| 2026-04-14 12:28 | 32.90709 | -12.07552 | 36201 ft | 458 kts | 26° |
| 2026-04-14 12:28 | 32.96369 | -12.03907 | 36201 ft | 458 kts | 27° |
| 2026-04-14 12:29 | 33.01938 | -12.00316 | 36201 ft | 458 kts | 27° |
| 2026-04-14 12:29 | 33.07534 | -11.96702 | 36201 ft | 456 kts | 26° |
| 2026-04-14 12:30 | 33.13143 | -11.93076 | 36202 ft | 455 kts | 26° |
| 2026-04-14 12:30 | 33.18700 | -11.89476 | 36203 ft | 456 kts | 26° |
| 2026-04-14 12:31 | 33.24273 | -11.85862 | 36203 ft | 456 kts | 26° |
| 2026-04-14 12:31 | 33.29886 | -11.82216 | 36204 ft | 456 kts | 26° |
| 2026-04-14 12:32 | 33.35466 | -11.78586 | 36204 ft | 456 kts | 26° |
| 2026-04-14 12:32 | 33.41081 | -11.74929 | 36204 ft | 456 kts | 26° |
| 2026-04-14 12:33 | 33.46739 | -11.71237 | 36205 ft | 456 kts | 26° |
| 2026-04-14 12:33 | 33.52277 | -11.67618 | 36206 ft | 456 kts | 26° |
| 2026-04-14 12:34 | 33.57892 | -11.63944 | 36206 ft | 456 kts | 26° |
| 2026-04-14 12:34 | 33.63583 | -11.60215 | 36208 ft | 457 kts | 26° |
| 2026-04-14 12:35 | 33.69162 | -11.56553 | 36197 ft | 457 kts | 26° |
| 2026-04-14 12:35 | 33.74736 | -11.52889 | 36196 ft | 457 kts | 26° |
| 2026-04-14 12:36 | 33.80313 | -11.49218 | 36196 ft | 456 kts | 27° |
| 2026-04-14 12:36 | 33.85960 | -11.45495 | 36197 ft | 456 kts | 27° |
| 2026-04-14 12:37 | 33.91530 | -11.41817 | 36200 ft | 456 kts | 27° |
| 2026-04-14 12:37 | 33.97149 | -11.38101 | 36203 ft | 456 kts | 26° |
| 2026-04-14 12:38 | 34.05614 | -11.32492 | 36204 ft | 455 kts | 26° |
| 2026-04-14 12:39 | 34.11160 | -11.28811 | 36205 ft | 454 kts | 26° |
| 2026-04-14 12:39 | 34.15789 | -11.25734 | 36206 ft | 454 kts | 26° |
| 2026-04-14 12:40 | 34.21380 | -11.22012 | 36207 ft | 454 kts | 26° |
| 2026-04-14 12:40 | 34.27045 | -11.18235 | 36208 ft | 453 kts | 26° |
| 2026-04-14 12:41 | 34.32570 | -11.14546 | 36209 ft | 453 kts | 26° |
| 2026-04-14 12:41 | 34.38072 | -11.10867 | 36210 ft | 452 kts | 26° |
| 2026-04-14 12:42 | 34.43575 | -11.07181 | 36211 ft | 452 kts | 26° |
| 2026-04-14 12:42 | 34.49076 | -11.03492 | 36213 ft | 451 kts | 26° |
| 2026-04-14 12:43 | 34.54643 | -10.99752 | 36223 ft | 451 kts | 26° |
| 2026-04-14 12:43 | 34.57400 | -10.97897 | 36346 ft | 453 kts | 26° |
| 2026-04-14 12:43 | 34.60187 | -10.96022 | 36620 ft | 452 kts | 26° |
| 2026-04-14 12:43 | 34.63001 | -10.94126 | 36936 ft | 449 kts | 26° |
| 2026-04-14 12:44 | 34.65766 | -10.92263 | 37181 ft | 449 kts | 26° |
| 2026-04-14 12:44 | 34.68503 | -10.90416 | 37395 ft | 449 kts | 26° |
| 2026-04-14 12:44 | 34.71230 | -10.88575 | 37627 ft | 448 kts | 26° |
| 2026-04-14 12:45 | 34.76671 | -10.84897 | 38065 ft | 447 kts | 26° |
| 2026-04-14 12:45 | 34.79393 | -10.83055 | 38250 ft | 448 kts | 26° |
| 2026-04-14 12:45 | 34.84808 | -10.79387 | 38268 ft | 448 kts | 26° |
| 2026-04-14 12:46 | 34.90224 | -10.75712 | 38272 ft | 446 kts | 26° |
| 2026-04-14 12:46 | 34.95691 | -10.71997 | 38272 ft | 446 kts | 26° |
| 2026-04-14 12:47 | 35.01149 | -10.68282 | 38271 ft | 446 kts | 26° |
| 2026-04-14 12:47 | 35.06557 | -10.64596 | 38271 ft | 446 kts | 26° |
| 2026-04-14 12:48 | 35.11938 | -10.60922 | 38271 ft | 445 kts | 26° |
| 2026-04-14 12:48 | 35.17391 | -10.57194 | 38270 ft | 445 kts | 26° |
| 2026-04-14 12:49 | 35.22805 | -10.53487 | 38269 ft | 445 kts | 26° |
| 2026-04-14 12:49 | 35.28256 | -10.49748 | 38269 ft | 445 kts | 26° |
| 2026-04-14 12:50 | 35.35686 | -10.44643 | 38268 ft | 445 kts | 26° |
| 2026-04-14 12:51 | 35.41083 | -10.40928 | 38267 ft | 444 kts | 26° |
| 2026-04-14 12:51 | 35.46472 | -10.37213 | 38268 ft | 444 kts | 26° |
| 2026-04-14 12:52 | 35.51850 | -10.33499 | 38267 ft | 444 kts | 26° |
| 2026-04-14 12:52 | 35.57248 | -10.29765 | 38266 ft | 443 kts | 26° |
| 2026-04-14 12:53 | 35.62612 | -10.26050 | 38267 ft | 443 kts | 26° |
| 2026-04-14 12:53 | 35.67991 | -10.22319 | 38267 ft | 443 kts | 26° |
| 2026-04-14 12:54 | 35.73463 | -10.18539 | 38266 ft | 442 kts | 26° |
| 2026-04-14 12:54 | 35.78835 | -10.14799 | 38266 ft | 442 kts | 26° |
| 2026-04-14 12:55 | 35.84221 | -10.11036 | 38266 ft | 442 kts | 26° |
| 2026-04-14 12:55 | 35.89630 | -10.07252 | 38265 ft | 442 kts | 26° |
| 2026-04-14 12:56 | 35.95071 | -10.03444 | 38256 ft | 442 kts | 26° |
| 2026-04-14 12:56 | 36.00397 | -9.99589 | 38248 ft | 443 kts | 28° |
| 2026-04-14 12:57 | 36.05681 | -9.95595 | 38248 ft | 443 kts | 28° |
| 2026-04-14 12:57 | 36.10979 | -9.91597 | 38249 ft | 443 kts | 28° |
| 2026-04-14 12:58 | 36.16240 | -9.87626 | 38250 ft | 443 kts | 28° |
| 2026-04-14 12:58 | 36.21528 | -9.83630 | 38250 ft | 442 kts | 28° |
| 2026-04-14 12:59 | 36.26779 | -9.79666 | 38251 ft | 441 kts | 27° |
| 2026-04-14 12:59 | 36.32042 | -9.75721 | 38250 ft | 441 kts | 27° |
| 2026-04-14 13:00 | 36.37285 | -9.71770 | 38248 ft | 441 kts | 27° |
| 2026-04-14 13:00 | 36.42510 | -9.67818 | 38248 ft | 440 kts | 27° |
| 2026-04-14 13:01 | 36.47741 | -9.63853 | 38249 ft | 440 kts | 27° |
| 2026-04-14 13:01 | 36.52982 | -9.59871 | 38250 ft | 440 kts | 27° |
| 2026-04-14 13:02 | 36.58193 | -9.55906 | 38250 ft | 439 kts | 27° |
| 2026-04-14 13:02 | 36.63406 | -9.51933 | 38251 ft | 439 kts | 27° |
| 2026-04-14 13:03 | 36.67792 | -9.48585 | 38248 ft | 439 kts | 27° |
| 2026-04-14 13:03 | 36.72985 | -9.44615 | 38251 ft | 438 kts | 27° |
| 2026-04-14 13:04 | 36.78237 | -9.40594 | 38251 ft | 437 kts | 27° |
| 2026-04-14 13:04 | 36.83385 | -9.36646 | 38252 ft | 437 kts | 27° |
| 2026-04-14 13:05 | 36.88704 | -9.32559 | 38260 ft | 437 kts | 27° |
| 2026-04-14 13:05 | 36.93919 | -9.28546 | 38269 ft | 437 kts | 27° |
| 2026-04-14 13:06 | 36.99125 | -9.24534 | 38269 ft | 436 kts | 27° |
| 2026-04-14 13:06 | 37.04329 | -9.20516 | 38272 ft | 436 kts | 27° |
| 2026-04-14 13:07 | 37.09635 | -9.16413 | 38276 ft | 436 kts | 27° |
| 2026-04-14 13:07 | 37.14853 | -9.12372 | 38276 ft | 436 kts | 27° |
| 2026-04-14 13:08 | 37.20194 | -9.08227 | 38276 ft | 435 kts | 27° |
| 2026-04-14 13:08 | 37.25337 | -9.04231 | 38277 ft | 435 kts | 27° |
| 2026-04-14 13:09 | 37.30486 | -9.00223 | 38278 ft | 435 kts | 27° |
| 2026-04-14 13:09 | 37.35619 | -8.96222 | 38279 ft | 434 kts | 27° |
| 2026-04-14 13:10 | 37.40750 | -8.92215 | 38280 ft | 434 kts | 27° |
| 2026-04-14 13:10 | 37.45882 | -8.88200 | 38281 ft | 433 kts | 27° |
| 2026-04-14 13:11 | 37.50133 | -8.84870 | 38281 ft | 433 kts | 27° |
| 2026-04-14 13:11 | 37.55257 | -8.80850 | 38282 ft | 433 kts | 27° |
| 2026-04-14 13:12 | 37.60359 | -8.76841 | 38283 ft | 432 kts | 27° |
| 2026-04-14 13:12 | 37.65456 | -8.72829 | 38284 ft | 432 kts | 27° |
| 2026-04-14 13:13 | 37.70551 | -8.68812 | 38285 ft | 431 kts | 27° |
| 2026-04-14 13:13 | 37.75610 | -8.64817 | 38285 ft | 431 kts | 27° |
| 2026-04-14 13:14 | 37.80693 | -8.60796 | 38287 ft | 430 kts | 27° |
| 2026-04-14 13:14 | 37.85767 | -8.56776 | 38289 ft | 430 kts | 27° |
| 2026-04-14 13:15 | 37.90833 | -8.52756 | 38288 ft | 430 kts | 27° |
| 2026-04-14 13:15 | 37.95899 | -8.48729 | 38290 ft | 429 kts | 27° |
| 2026-04-14 13:16 | 38.00956 | -8.44702 | 38291 ft | 429 kts | 27° |
| 2026-04-14 13:16 | 38.06000 | -8.40679 | 38295 ft | 429 kts | 26° |
| 2026-04-14 13:17 | 38.11059 | -8.36638 | 38294 ft | 429 kts | 27° |
| 2026-04-14 13:17 | 38.16072 | -8.32626 | 38294 ft | 428 kts | 27° |
| 2026-04-14 13:18 | 38.21121 | -8.28580 | 38294 ft | 428 kts | 27° |
| 2026-04-14 13:18 | 38.26175 | -8.24522 | 38295 ft | 428 kts | 27° |
| 2026-04-14 13:19 | 38.31218 | -8.20466 | 38294 ft | 428 kts | 27° |
| 2026-04-14 13:19 | 38.36261 | -8.16404 | 38292 ft | 428 kts | 27° |
| 2026-04-14 13:20 | 38.41301 | -8.12357 | 38292 ft | 429 kts | 26° |
| 2026-04-14 13:20 | 38.46327 | -8.08306 | 38292 ft | 429 kts | 27° |
| 2026-04-14 13:21 | 38.51365 | -8.04219 | 38291 ft | 429 kts | 27° |
| 2026-04-14 13:21 | 38.56406 | -8.00121 | 38291 ft | 430 kts | 27° |
| 2026-04-14 13:22 | 38.61442 | -7.96021 | 38289 ft | 427 kts | 27° |
| 2026-04-14 13:22 | 38.66418 | -7.91968 | 38288 ft | 425 kts | 27° |
| 2026-04-14 13:23 | 38.71467 | -7.87846 | 38287 ft | 426 kts | 27° |
| 2026-04-14 13:23 | 38.76512 | -7.83715 | 38286 ft | 425 kts | 27° |
| 2026-04-14 13:24 | 38.81427 | -7.79680 | 38283 ft | 425 kts | 27° |
| 2026-04-14 13:24 | 38.88896 | -7.73532 | 38282 ft | 425 kts | 27° |
| 2026-04-14 13:25 | 38.93925 | -7.69384 | 38278 ft | 425 kts | 27° |
| 2026-04-14 13:26 | 39.03907 | -7.61205 | 38276 ft | 424 kts | 27° |
| 2026-04-14 13:26 | 39.08900 | -7.57091 | 38275 ft | 424 kts | 27° |
| 2026-04-14 13:27 | 39.13943 | -7.52922 | 38275 ft | 424 kts | 27° |
| 2026-04-14 13:27 | 39.18934 | -7.48787 | 38274 ft | 424 kts | 27° |
| 2026-04-14 13:28 | 39.23928 | -7.44641 | 38273 ft | 424 kts | 27° |
| 2026-04-14 13:28 | 39.28927 | -7.40483 | 38274 ft | 424 kts | 27° |
| 2026-04-14 13:29 | 39.33903 | -7.36337 | 38273 ft | 423 kts | 27° |
| 2026-04-14 13:29 | 39.38902 | -7.32164 | 38273 ft | 424 kts | 27° |
| 2026-04-14 13:30 | 39.43851 | -7.28026 | 38273 ft | 424 kts | 27° |
| 2026-04-14 13:30 | 39.48849 | -7.23840 | 38274 ft | 424 kts | 27° |
| 2026-04-14 13:31 | 39.53769 | -7.19712 | 38274 ft | 423 kts | 27° |
| 2026-04-14 13:31 | 39.57954 | -7.16195 | 38274 ft | 423 kts | 27° |
| 2026-04-14 13:32 | 39.62860 | -7.12066 | 38275 ft | 422 kts | 27° |
| 2026-04-14 13:32 | 39.67809 | -7.07893 | 38274 ft | 422 kts | 27° |
| 2026-04-14 13:33 | 39.72772 | -7.03702 | 38275 ft | 422 kts | 27° |
| 2026-04-14 13:33 | 39.77723 | -6.99513 | 38275 ft | 421 kts | 27° |
| 2026-04-14 13:34 | 39.85086 | -6.93269 | 38276 ft | 420 kts | 27° |
| 2026-04-14 13:35 | 39.90011 | -6.89085 | 38275 ft | 419 kts | 27° |
| 2026-04-14 13:35 | 39.94881 | -6.84939 | 38276 ft | 419 kts | 27° |
| 2026-04-14 13:36 | 39.99842 | -6.80709 | 38275 ft | 418 kts | 27° |
| 2026-04-14 13:36 | 40.04641 | -6.76609 | 38265 ft | 420 kts | 27° |
| 2026-04-14 13:37 | 40.09561 | -6.72400 | 38263 ft | 419 kts | 27° |
| 2026-04-14 13:37 | 40.14411 | -6.68242 | 38263 ft | 418 kts | 27° |
| 2026-04-14 13:38 | 40.19279 | -6.64062 | 38265 ft | 418 kts | 27° |
| 2026-04-14 13:38 | 40.24142 | -6.59878 | 38263 ft | 418 kts | 27° |
| 2026-04-14 13:39 | 40.28991 | -6.55701 | 38263 ft | 417 kts | 27° |
| 2026-04-14 13:39 | 40.33848 | -6.51533 | 38262 ft | 417 kts | 27° |
| 2026-04-14 13:40 | 40.38702 | -6.47346 | 38262 ft | 417 kts | 27° |
| 2026-04-14 13:40 | 40.43551 | -6.43137 | 38261 ft | 417 kts | 27° |
| 2026-04-14 13:41 | 40.48359 | -6.38953 | 38261 ft | 417 kts | 27° |
| 2026-04-14 13:41 | 40.53231 | -6.34708 | 38260 ft | 417 kts | 27° |
| 2026-04-14 13:42 | 40.58132 | -6.30452 | 38257 ft | 416 kts | 25° |
| 2026-04-14 13:42 | 40.63131 | -6.26845 | 38260 ft | 413 kts | 21° |
| 2026-04-14 13:43 | 40.68266 | -6.23350 | 38260 ft | 413 kts | 21° |
| 2026-04-14 13:43 | 40.73372 | -6.19833 | 38260 ft | 414 kts | 21° |
| 2026-04-14 13:44 | 40.78546 | -6.16248 | 38260 ft | 414 kts | 21° |
| 2026-04-14 13:44 | 40.83611 | -6.12727 | 38260 ft | 415 kts | 21° |
| 2026-04-14 13:45 | 40.88726 | -6.09164 | 38259 ft | 415 kts | 21° |
| 2026-04-14 13:45 | 40.93849 | -6.05630 | 38260 ft | 415 kts | 21° |
| 2026-04-14 13:46 | 40.98962 | -6.02077 | 38261 ft | 416 kts | 21° |
| 2026-04-14 13:46 | 41.04122 | -5.98477 | 38260 ft | 414 kts | 21° |
| 2026-04-14 13:47 | 41.09186 | -5.94934 | 38258 ft | 409 kts | 21° |
| 2026-04-14 13:47 | 41.14201 | -5.91417 | 38259 ft | 409 kts | 21° |
| 2026-04-14 13:48 | 41.19260 | -5.87864 | 38259 ft | 411 kts | 21° |
| 2026-04-14 13:48 | 41.24288 | -5.84327 | 38259 ft | 411 kts | 21° |
| 2026-04-14 13:49 | 41.29364 | -5.80775 | 38259 ft | 412 kts | 21° |
| 2026-04-14 13:49 | 41.34235 | -5.77334 | 38259 ft | 412 kts | 21° |
| 2026-04-14 13:50 | 41.38446 | -5.74349 | 38259 ft | 412 kts | 21° |
| 2026-04-14 13:50 | 41.43539 | -5.70731 | 38259 ft | 412 kts | 21° |
| 2026-04-14 13:51 | 41.48642 | -5.67102 | 38259 ft | 412 kts | 21° |
| 2026-04-14 13:51 | 41.53718 | -5.63550 | 38256 ft | 410 kts | 19° |
| 2026-04-14 13:52 | 41.58941 | -5.60537 | 38255 ft | 410 kts | 16° |
| 2026-04-14 13:52 | 41.64228 | -5.57619 | 38255 ft | 410 kts | 17° |
| 2026-04-14 13:53 | 41.69500 | -5.54663 | 38254 ft | 410 kts | 17° |
| 2026-04-14 13:53 | 41.74743 | -5.51700 | 38253 ft | 410 kts | 17° |
| 2026-04-14 13:54 | 41.80039 | -5.48695 | 38253 ft | 410 kts | 17° |
| 2026-04-14 13:54 | 41.85253 | -5.45734 | 38253 ft | 409 kts | 17° |
| 2026-04-14 13:55 | 41.90508 | -5.42772 | 38252 ft | 409 kts | 17° |
| 2026-04-14 13:55 | 41.95751 | -5.39796 | 38251 ft | 409 kts | 17° |
| 2026-04-14 13:56 | 42.00996 | -5.36806 | 38250 ft | 409 kts | 17° |
| 2026-04-14 13:56 | 42.06288 | -5.33782 | 38249 ft | 411 kts | 17° |
| 2026-04-14 13:57 | 42.11511 | -5.30791 | 38247 ft | 410 kts | 17° |
| 2026-04-14 13:57 | 42.16775 | -5.27770 | 38246 ft | 409 kts | 17° |
| 2026-04-14 13:58 | 42.22085 | -5.24717 | 38244 ft | 409 kts | 17° |
| 2026-04-14 13:58 | 42.27442 | -5.21632 | 38243 ft | 408 kts | 17° |
| 2026-04-14 13:59 | 42.32626 | -5.18640 | 38241 ft | 408 kts | 17° |
| 2026-04-14 13:59 | 42.37916 | -5.15592 | 38241 ft | 407 kts | 17° |
| 2026-04-14 14:00 | 42.43088 | -5.12612 | 38240 ft | 407 kts | 17° |
| 2026-04-14 14:00 | 42.48370 | -5.09543 | 38239 ft | 407 kts | 17° |
| 2026-04-14 14:01 | 42.53591 | -5.06501 | 38239 ft | 407 kts | 17° |
| 2026-04-14 14:01 | 42.58826 | -5.03444 | 38238 ft | 406 kts | 17° |
| 2026-04-14 14:02 | 42.63968 | -5.00441 | 38238 ft | 406 kts | 17° |
| 2026-04-14 14:02 | 42.69163 | -4.97401 | 38239 ft | 406 kts | 17° |
| 2026-04-14 14:03 | 42.74368 | -4.94350 | 38239 ft | 406 kts | 17° |
| 2026-04-14 14:03 | 42.79601 | -4.91274 | 38240 ft | 406 kts | 17° |
| 2026-04-14 14:04 | 42.84812 | -4.88203 | 38240 ft | 406 kts | 17° |
| 2026-04-14 14:04 | 42.90032 | -4.85122 | 38241 ft | 406 kts | 17° |
| 2026-04-14 14:05 | 42.94364 | -4.82560 | 38242 ft | 406 kts | 17° |
| 2026-04-14 14:05 | 42.99557 | -4.79500 | 38244 ft | 406 kts | 17° |
| 2026-04-14 14:06 | 43.04801 | -4.76418 | 38245 ft | 407 kts | 17° |
| 2026-04-14 14:06 | 43.09992 | -4.73349 | 38246 ft | 406 kts | 17° |
| 2026-04-14 14:07 | 43.15182 | -4.70268 | 38247 ft | 406 kts | 17° |
| 2026-04-14 14:07 | 43.20364 | -4.67199 | 38248 ft | 406 kts | 17° |
| 2026-04-14 14:08 | 43.25554 | -4.64118 | 38249 ft | 406 kts | 17° |
| 2026-04-14 14:08 | 43.30675 | -4.61054 | 38250 ft | 406 kts | 17° |
| 2026-04-14 14:09 | 43.35942 | -4.57894 | 38251 ft | 406 kts | 17° |
| 2026-04-14 14:09 | 43.41136 | -4.54772 | 38251 ft | 404 kts | 17° |
| 2026-04-14 14:10 | 43.46343 | -4.51641 | 38250 ft | 404 kts | 17° |
| 2026-04-14 14:10 | 43.51603 | -4.48512 | 38251 ft | 405 kts | 17° |
| 2026-04-14 14:11 | 43.56759 | -4.45378 | 38253 ft | 404 kts | 17° |
| 2026-04-14 14:11 | 43.61947 | -4.42227 | 38253 ft | 404 kts | 17° |
| 2026-04-14 14:12 | 43.67156 | -4.39064 | 38253 ft | 404 kts | 17° |
| 2026-04-14 14:12 | 43.72263 | -4.35959 | 38252 ft | 403 kts | 17° |
| 2026-04-14 14:13 | 43.77426 | -4.32814 | 38253 ft | 403 kts | 17° |
| 2026-04-14 14:13 | 43.82566 | -4.29705 | 38252 ft | 402 kts | 17° |
| 2026-04-14 14:14 | 43.87652 | -4.26624 | 38252 ft | 402 kts | 17° |
| 2026-04-14 14:14 | 43.92823 | -4.23473 | 38251 ft | 402 kts | 17° |
| 2026-04-14 14:15 | 43.97896 | -4.20373 | 38250 ft | 402 kts | 17° |
| 2026-04-14 14:15 | 44.03029 | -4.17228 | 38250 ft | 402 kts | 17° |
| 2026-04-14 14:16 | 44.08187 | -4.14087 | 38249 ft | 402 kts | 17° |
| 2026-04-14 14:16 | 44.13308 | -4.10936 | 38250 ft | 402 kts | 17° |
| 2026-04-14 14:17 | 44.21012 | -4.06172 | 38247 ft | 402 kts | 17° |
| 2026-04-14 14:17 | 44.26106 | -4.03015 | 38246 ft | 403 kts | 17° |
| 2026-04-14 14:18 | 44.31241 | -3.99832 | 38245 ft | 404 kts | 17° |
| 2026-04-14 14:18 | 44.36265 | -3.96307 | 38244 ft | 406 kts | 22° |
| 2026-04-14 14:19 | 44.41184 | -3.92337 | 38243 ft | 407 kts | 22° |
| 2026-04-14 14:19 | 44.46092 | -3.88382 | 38242 ft | 407 kts | 22° |
| 2026-04-14 14:20 | 44.51024 | -3.84426 | 38241 ft | 408 kts | 22° |
| 2026-04-14 14:20 | 44.55137 | -3.81131 | 38240 ft | 407 kts | 22° |
| 2026-04-14 14:21 | 44.60183 | -3.77086 | 38247 ft | 407 kts | 22° |
| 2026-04-14 14:21 | 44.65088 | -3.73183 | 38246 ft | 407 kts | 21° |
| 2026-04-14 14:22 | 44.70038 | -3.69252 | 38245 ft | 407 kts | 22° |
| 2026-04-14 14:22 | 44.74978 | -3.65304 | 38244 ft | 408 kts | 22° |
| 2026-04-14 14:23 | 44.79895 | -3.61361 | 38243 ft | 408 kts | 22° |
| 2026-04-14 14:23 | 44.84899 | -3.57335 | 38242 ft | 408 kts | 22° |
| 2026-04-14 14:24 | 44.89794 | -3.53388 | 38241 ft | 408 kts | 22° |
| 2026-04-14 14:24 | 44.94745 | -3.49387 | 38239 ft | 409 kts | 22° |
| 2026-04-14 14:25 | 44.99692 | -3.45381 | 38238 ft | 409 kts | 22° |
| 2026-04-14 14:25 | 45.04657 | -3.41352 | 38234 ft | 409 kts | 22° |
| 2026-04-14 14:26 | 45.09560 | -3.37365 | 38233 ft | 409 kts | 22° |
| 2026-04-14 14:26 | 45.14521 | -3.33324 | 38231 ft | 409 kts | 22° |
| 2026-04-14 14:27 | 45.19536 | -3.29229 | 38230 ft | 410 kts | 22° |
| 2026-04-14 14:27 | 45.24479 | -3.25186 | 38229 ft | 410 kts | 22° |
| 2026-04-14 14:28 | 45.29411 | -3.21143 | 38225 ft | 409 kts | 22° |
| 2026-04-14 14:28 | 45.34406 | -3.17040 | 38225 ft | 409 kts | 22° |
| 2026-04-14 14:29 | 45.39406 | -3.12924 | 38224 ft | 410 kts | 22° |
| 2026-04-14 14:29 | 45.44292 | -3.08894 | 38218 ft | 408 kts | 22° |
| 2026-04-14 14:30 | 45.49241 | -3.04804 | 38217 ft | 408 kts | 22° |
| 2026-04-14 14:30 | 45.54155 | -3.00735 | 38216 ft | 408 kts | 22° |
| 2026-04-14 14:31 | 45.59061 | -2.96663 | 38202 ft | 408 kts | 22° |
| 2026-04-14 14:31 | 45.63977 | -2.92576 | 38195 ft | 408 kts | 22° |
| 2026-04-14 14:32 | 45.68835 | -2.88528 | 38192 ft | 406 kts | 22° |
| 2026-04-14 14:32 | 45.73726 | -2.84444 | 38035 ft | 410 kts | 22° |
| 2026-04-14 14:33 | 45.76187 | -2.82386 | 37671 ft | 408 kts | 22° |
| 2026-04-14 14:33 | 45.78638 | -2.80334 | 37033 ft | 408 kts | 22° |
| 2026-04-14 14:33 | 45.81089 | -2.78281 | 36388 ft | 408 kts | 23° |
| 2026-04-14 14:33 | 45.83540 | -2.76225 | 35725 ft | 409 kts | 23° |
| 2026-04-14 14:34 | 45.88469 | -2.72084 | 34368 ft | 411 kts | 24° |
| 2026-04-14 14:34 | 45.90952 | -2.70015 | 33679 ft | 411 kts | 24° |
| 2026-04-14 14:34 | 45.93437 | -2.67939 | 33033 ft | 411 kts | 24° |
| 2026-04-14 14:35 | 45.95911 | -2.65856 | 32523 ft | 407 kts | 25° |
| 2026-04-14 14:35 | 45.98352 | -2.63794 | 32020 ft | 404 kts | 25° |
| 2026-04-14 14:35 | 46.00753 | -2.61760 | 31525 ft | 401 kts | 25° |
| 2026-04-14 14:35 | 46.03185 | -2.59697 | 31026 ft | 398 kts | 25° |
| 2026-04-14 14:36 | 46.05534 | -2.57701 | 30545 ft | 395 kts | 25° |
| 2026-04-14 14:36 | 46.07924 | -2.55668 | 30061 ft | 393 kts | 25° |
| 2026-04-14 14:36 | 46.10270 | -2.53673 | 29592 ft | 390 kts | 25° |
| 2026-04-14 14:36 | 46.12602 | -2.51688 | 29126 ft | 388 kts | 25° |
| 2026-04-14 14:37 | 46.14908 | -2.49787 | 28668 ft | 383 kts | 21° |
| 2026-04-14 14:37 | 46.16639 | -2.48701 | 28349 ft | 378 kts | 15° |
| 2026-04-14 14:37 | 46.19182 | -2.47670 | 27893 ft | 371 kts | 8° |
| 2026-04-14 14:37 | 46.21710 | -2.47001 | 27421 ft | 368 kts | 5° |
| 2026-04-14 14:38 | 46.24250 | -2.46508 | 26955 ft | 366 kts | 4° |
| 2026-04-14 14:38 | 46.26744 | -2.46103 | 26502 ft | 364 kts | 3° |
| 2026-04-14 14:38 | 46.29307 | -2.45690 | 26037 ft | 362 kts | 3° |
| 2026-04-14 14:38 | 46.31914 | -2.45270 | 25564 ft | 360 kts | 3° |
| 2026-04-14 14:39 | 46.34398 | -2.44868 | 25113 ft | 358 kts | 3° |
| 2026-04-14 14:39 | 46.36870 | -2.44467 | 24665 ft | 356 kts | 3° |
| 2026-04-14 14:39 | 46.39338 | -2.44067 | 24216 ft | 355 kts | 3° |
| 2026-04-14 14:39 | 46.41803 | -2.43667 | 23766 ft | 353 kts | 3° |
| 2026-04-14 14:40 | 46.44241 | -2.43271 | 23321 ft | 352 kts | 3° |
| 2026-04-14 14:40 | 46.46672 | -2.42876 | 22878 ft | 350 kts | 3° |
| 2026-04-14 14:40 | 46.49063 | -2.42488 | 22444 ft | 349 kts | 3° |
| 2026-04-14 14:40 | 46.51495 | -2.42129 | 21998 ft | 346 kts | 1° |
| 2026-04-14 14:41 | 46.53901 | -2.41894 | 21559 ft | 345 kts | 0° |
| 2026-04-14 14:41 | 46.56291 | -2.41683 | 21122 ft | 343 kts | 1° |
| 2026-04-14 14:41 | 46.58669 | -2.41455 | 20686 ft | 342 kts | 1° |
| 2026-04-14 14:41 | 46.61009 | -2.41220 | 20259 ft | 341 kts | 1° |
| 2026-04-14 14:42 | 46.63370 | -2.40978 | 19827 ft | 340 kts | 1° |
| 2026-04-14 14:42 | 46.65723 | -2.40735 | 19396 ft | 338 kts | 1° |
| 2026-04-14 14:42 | 46.68097 | -2.40489 | 18961 ft | 337 kts | 1° |
| 2026-04-14 14:42 | 46.70429 | -2.40134 | 18527 ft | 338 kts | 9° |
| 2026-04-14 14:43 | 46.72592 | -2.38723 | 18109 ft | 344 kts | 31° |
| 2026-04-14 14:43 | 46.74399 | -2.36423 | 17660 ft | 348 kts | 42° |
| 2026-04-14 14:43 | 46.75836 | -2.34076 | 17279 ft | 349 kts | 46° |
| 2026-04-14 14:43 | 46.77547 | -2.30970 | 16805 ft | 349 kts | 48° |
| 2026-04-14 14:44 | 46.79049 | -2.28201 | 16389 ft | 347 kts | 48° |
| 2026-04-14 14:44 | 46.80559 | -2.25458 | 15978 ft | 346 kts | 47° |
| 2026-04-14 14:44 | 46.82067 | -2.22739 | 15572 ft | 344 kts | 47° |
| 2026-04-14 14:44 | 46.83555 | -2.20064 | 15173 ft | 343 kts | 47° |
| 2026-04-14 14:45 | 46.85053 | -2.17376 | 14773 ft | 341 kts | 48° |
| 2026-04-14 14:45 | 46.86552 | -2.14686 | 14374 ft | 340 kts | 48° |
| 2026-04-14 14:45 | 46.88041 | -2.12019 | 13979 ft | 338 kts | 48° |
| 2026-04-14 14:45 | 46.89547 | -2.09387 | 13585 ft | 336 kts | 45° |
| 2026-04-14 14:46 | 46.91205 | -2.07018 | 13194 ft | 333 kts | 39° |
| 2026-04-14 14:46 | 46.92967 | -2.04834 | 12809 ft | 330 kts | 36° |
| 2026-04-14 14:46 | 46.94811 | -2.02694 | 12426 ft | 328 kts | 35° |
| 2026-04-14 14:46 | 46.96574 | -2.00651 | 12059 ft | 327 kts | 36° |
| 2026-04-14 14:47 | 46.98364 | -1.98539 | 11677 ft | 325 kts | 37° |
| 2026-04-14 14:47 | 47.00245 | -1.96324 | 11284 ft | 323 kts | 36° |
| 2026-04-14 14:47 | 47.01972 | -1.94284 | 11137 ft | 315 kts | 37° |
| 2026-04-14 14:47 | 47.03668 | -1.92254 | 11006 ft | 306 kts | 37° |
| 2026-04-14 14:48 | 47.05300 | -1.90286 | 10879 ft | 301 kts | 37° |
| 2026-04-14 14:48 | 47.06911 | -1.88333 | 10735 ft | 300 kts | 37° |
| 2026-04-14 14:48 | 47.08025 | -1.86979 | 10564 ft | 302 kts | 38° |
| 2026-04-14 14:48 | 47.09650 | -1.84998 | 10314 ft | 305 kts | 38° |
| 2026-04-14 14:49 | 47.11276 | -1.83004 | 10067 ft | 307 kts | 38° |
| 2026-04-14 14:49 | 47.12918 | -1.81002 | 9814 ft | 305 kts | 38° |
| 2026-04-14 14:49 | 47.14570 | -1.78987 | 9560 ft | 303 kts | 38° |
| 2026-04-14 14:49 | 47.16194 | -1.76999 | 9309 ft | 305 kts | 38° |
| 2026-04-14 14:50 | 47.17785 | -1.75051 | 9063 ft | 302 kts | 38° |
| 2026-04-14 14:50 | 47.19440 | -1.73025 | 8800 ft | 299 kts | 38° |
| 2026-04-14 14:50 | 47.21069 | -1.71032 | 8544 ft | 295 kts | 38° |
| 2026-04-14 14:50 | 47.22619 | -1.69133 | 8296 ft | 292 kts | 38° |
| 2026-04-14 14:51 | 47.24425 | -1.66915 | 8003 ft | 288 kts | 38° |
| 2026-04-14 14:51 | 47.25894 | -1.65129 | 7762 ft | 285 kts | 38° |
| 2026-04-14 14:51 | 47.27450 | -1.63227 | 7504 ft | 282 kts | 38° |
| 2026-04-14 14:51 | 47.28854 | -1.61507 | 7270 ft | 280 kts | 38° |
| 2026-04-14 14:52 | 47.30411 | -1.59588 | 7008 ft | 277 kts | 38° |
| 2026-04-14 14:52 | 47.31884 | -1.57772 | 6757 ft | 274 kts | 39° |
| 2026-04-14 14:52 | 47.33343 | -1.55974 | 6516 ft | 271 kts | 39° |
| 2026-04-14 14:52 | 47.34804 | -1.54169 | 6288 ft | 261 kts | 38° |
| 2026-04-14 14:53 | 47.36039 | -1.52343 | 6014 ft | 244 kts | 58° |
| 2026-04-14 14:53 | 47.36524 | -1.50051 | 5754 ft | 228 kts | 85° |
| 2026-04-14 14:53 | 47.36395 | -1.47788 | 5494 ft | 217 kts | 110° |
| 2026-04-14 14:53 | 47.35736 | -1.45875 | 5249 ft | 204 kts | 128° |
| 2026-04-14 14:54 | 47.35181 | -1.44779 | 5088 ft | 199 kts | 133° |
| 2026-04-14 14:54 | 47.34300 | -1.43256 | 4836 ft | 192 kts | 137° |
| 2026-04-14 14:54 | 47.33295 | -1.42070 | 4561 ft | 179 kts | 162° |
| 2026-04-14 14:54 | 47.32136 | -1.41863 | 4312 ft | 162 kts | 195° |
| 2026-04-14 14:55 | 47.30906 | -1.42867 | 4008 ft | 146 kts | 214° |
| 2026-04-14 14:55 | 47.30379 | -1.43477 | 3847 ft | 140 kts | 217° |
| 2026-04-14 14:55 | 47.29691 | -1.44345 | 3708 ft | 123 kts | 218° |
| 2026-04-14 14:55 | 47.29070 | -1.45159 | 3536 ft | 116 kts | 218° |
| 2026-04-14 14:56 | 47.27878 | -1.46725 | 3232 ft | 114 kts | 217° |
| 2026-04-14 14:56 | 47.27272 | -1.47509 | 3074 ft | 116 kts | 216° |
| 2026-04-14 14:56 | 47.26663 | -1.48266 | 2914 ft | 117 kts | 216° |
| 2026-04-14 14:57 | 47.26026 | -1.49053 | 2739 ft | 117 kts | 216° |
| 2026-04-14 14:57 | 47.25409 | -1.49813 | 2552 ft | 114 kts | 215° |
| 2026-04-14 14:57 | 47.24793 | -1.50572 | 2402 ft | 114 kts | 216° |
| 2026-04-14 14:57 | 47.24183 | -1.51324 | 2235 ft | 114 kts | 216° |
| 2026-04-14 14:58 | 47.23578 | -1.52072 | 2079 ft | 114 kts | 216° |
| 2026-04-14 14:58 | 47.22953 | -1.52841 | 1928 ft | 119 kts | 216° |
| 2026-04-14 14:58 | 47.22320 | -1.53620 | 1741 ft | 117 kts | 216° |
| 2026-04-14 14:58 | 47.21682 | -1.54405 | 1563 ft | 117 kts | 216° |
| 2026-04-14 14:59 | 47.21049 | -1.55183 | 1392 ft | 121 kts | 217° |
| 2026-04-14 14:59 | 47.20403 | -1.55978 | 1229 ft | 121 kts | 217° |
| 2026-04-14 14:59 | 47.19751 | -1.56780 | 1054 ft | 120 kts | 217° |
| 2026-04-14 14:59 | 47.19104 | -1.57577 | 880 ft | 120 kts | 217° |
| 2026-04-14 15:00 | 47.18467 | -1.58362 | 710 ft | 120 kts | 217° |
| 2026-04-14 15:00 | 47.17821 | -1.59134 | 538 ft | 120 kts | 212° |
| 2026-04-14 15:00 | 47.17109 | -1.59730 | 293 ft | 121 kts | 205° |
| 2026-04-14 15:00 | 47.16344 | -1.60289 | 153 ft | 120 kts | 205° |
| 2026-04-14 15:01 | 47.15672 | -1.60794 | 99 ft | 91 kts | 208° |
| 2026-04-14 15:01 | 47.15251 | -1.61117 | 98 ft | 47 kts | 208° |
| 2026-04-14 15:01 | 47.15074 | -1.61245 | 98 ft | 14 kts | 202° |
| 2026-04-14 15:01 | 47.14957 | -1.61345 | 98 ft | 33 kts | 206° |
| 2026-04-14 15:02 | 47.14847 | -1.61441 | 98 ft | 9 kts | 208° |
| 2026-04-14 15:02 | 47.14819 | -1.61453 | 98 ft | 5 kts | 179° |
| 2026-04-14 15:02 | 47.14810 | -1.61361 | 98 ft | 16 kts | 63° |
| 2026-04-14 15:02 | 47.14838 | -1.61228 | 98 ft | 10 kts | 78° |
| 2026-04-14 15:03 | 47.14857 | -1.61166 | 98 ft | 6 kts | 46° |
| 2026-04-14 15:03 | 47.14896 | -1.61127 | 98 ft | 7 kts | 32° |
| 2026-04-14 15:03 | 47.14937 | -1.61090 | 98 ft | 7 kts | 29° |
| 2026-04-14 15:03 | 47.14979 | -1.61059 | 98 ft | 7 kts | 26° |
| 2026-04-14 15:04 | 47.15021 | -1.61033 | 98 ft | 6 kts | 20° |
| 2026-04-14 15:04 | 47.15063 | -1.61001 | 98 ft | 7 kts | 29° |
| 2026-04-14 15:04 | 47.15107 | -1.60970 | 98 ft | 7 kts | 29° |
| 2026-04-14 15:04 | 47.15150 | -1.60933 | 98 ft | 8 kts | 30° |
| 2026-04-14 15:05 | 47.15206 | -1.60891 | 98 ft | 9 kts | 25° |
| 2026-04-14 15:05 | 47.15263 | -1.60850 | 98 ft | 9 kts | 26° |
| 2026-04-14 15:05 | 47.15316 | -1.60808 | 98 ft | 9 kts | 28° |
| 2026-04-14 15:05 | 47.15368 | -1.60768 | 98 ft | 8 kts | 28° |
| 2026-04-14 15:06 | 47.15417 | -1.60730 | 98 ft | 8 kts | 28° |
| 2026-04-14 15:06 | 47.15464 | -1.60695 | 98 ft | 7 kts | 25° |
| 2026-04-14 15:06 | 47.15509 | -1.60662 | 98 ft | 7 kts | 27° |
| 2026-04-14 15:06 | 47.15552 | -1.60630 | 98 ft | 7 kts | 27° |
| 2026-04-14 15:07 | 47.15593 | -1.60598 | 98 ft | 7 kts | 27° |
| 2026-04-14 15:07 | 47.15633 | -1.60567 | 98 ft | 6 kts | 27° |
| 2026-04-14 15:07 | 47.15673 | -1.60538 | 98 ft | 6 kts | 26° |
| 2026-04-14 15:07 | 47.15711 | -1.60509 | 98 ft | 6 kts | 26° |
| 2026-04-14 15:08 | 47.15747 | -1.60479 | 98 ft | 6 kts | 51° |
| 2026-04-14 15:08 | 47.15735 | -1.60430 | 98 ft | 6 kts | 135° |
| 2026-04-14 15:08 | 47.15706 | -1.60392 | 98 ft | 5 kts | 142° |
| 2026-04-14 15:08 | 47.15676 | -1.60359 | 98 ft | 5 kts | 141° |
| 2026-04-14 15:09 | 47.15664 | -1.60316 | 98 ft | 5 kts | 52° |
| 2026-04-14 15:09 | 47.15696 | -1.60294 | 98 ft | 5 kts | 22° |
| 2026-04-14 15:09 | 47.15713 | -1.60282 | 98 ft | 0 kts | 24° |